Time;durP1;ratioP1;P1;durP2;ratioP2;P2;SDS_P1;SDS_P2;PMS_P1;PMS_P2;Temp;Humidity;BMP_temperature;BMP_pressure;BME280_temperature;BME280_humidity;BME280_pressure;Samples;Min_cycle;Max_cycle;Signal;HPM_P1;HPM_P2
2023/04/20 00:00:47;;;;;;;0.10;0.10;;;7.50;99.90;;;;;;5058304;28;20670;-81
2023/04/20 00:03:13;;;;;;;0.10;0.10;;;7.60;99.90;;;;;;5061171;28;20245;-81
2023/04/20 00:05:38;;;;;;;0.10;0.10;;;7.50;99.90;;;;;;5067825;28;20200;-81
2023/04/20 00:08:04;;;;;;;0.10;0.10;;;7.50;99.90;;;;;;5063561;28;20660;-82
2023/04/20 00:10:29;;;;;;;0.10;0.10;;;7.40;99.90;;;;;;5065685;28;20177;-81
2023/04/20 00:12:55;;;;;;;0.10;0.10;;;7.40;99.90;;;;;;5058193;28;20188;-81
2023/04/20 00:15:20;;;;;;;0.10;0.10;;;7.30;99.90;;;;;;5061489;28;20208;-80
2023/04/20 00:17:47;;;;;;;0.10;0.10;;;7.30;99.90;;;;;;5065311;28;20647;-82
2023/04/20 00:20:14;;;;;;;0.10;0.10;;;7.20;99.90;;;;;;5063997;28;20370;-82
2023/04/20 00:22:39;;;;;;;0.10;0.10;;;7.30;99.90;;;;;;5067093;28;20176;-81
2023/04/20 00:25:05;;;;;;;0.10;0.10;;;7.20;99.90;;;;;;5067327;28;20196;-81
2023/04/20 00:27:31;;;;;;;0.00;0.00;;;7.20;99.90;;;;;;5066838;28;20662;-81
2023/04/20 00:29:57;;;;;;;0.10;0.10;;;7.20;99.90;;;;;;5064775;28;20193;-81
2023/04/20 00:32:22;;;;;;;0.10;0.10;;;7.10;99.90;;;;;;5058487;28;20180;-82
2023/04/20 00:34:48;;;;;;;0.10;0.10;;;7.00;99.90;;;;;;5062085;28;20207;-81
2023/04/20 00:37:13;;;;;;;0.10;0.10;;;7.10;99.90;;;;;;5059648;28;20183;-81
2023/04/20 00:39:40;;;;;;;0.10;0.10;;;7.00;99.90;;;;;;5061531;28;20317;-81
2023/04/20 00:42:06;;;;;;;0.10;0.10;;;7.00;99.90;;;;;;5060786;28;20556;-81
2023/04/20 00:44:33;;;;;;;0.10;0.10;;;7.00;99.90;;;;;;5065748;28;20195;-80
2023/04/20 00:46:59;;;;;;;0.10;0.10;;;7.00;99.90;;;;;;5060188;28;20233;-81
2023/04/20 00:49:28;;;;;;;0.10;0.10;;;6.90;99.90;;;;;;5066617;28;20191;-81
2023/04/20 00:51:56;;;;;;;0.10;0.10;;;6.90;99.90;;;;;;5064766;28;20188;-81
2023/04/20 00:54:21;;;;;;;0.10;0.10;;;6.90;99.90;;;;;;5063726;28;20202;-81
2023/04/20 00:56:47;;;;;;;0.10;0.10;;;6.90;99.90;;;;;;5062511;28;20215;-81
2023/04/20 00:59:13;;;;;;;0.10;0.10;;;6.80;99.90;;;;;;5056816;28;20226;-81
2023/04/20 01:01:40;;;;;;;0.10;0.10;;;6.80;99.90;;;;;;5061288;28;20183;-81
2023/04/20 01:04:06;;;;;;;0.10;0.10;;;6.70;99.90;;;;;;5062542;28;20192;-81
2023/04/20 01:06:32;;;;;;;0.10;0.10;;;6.70;99.90;;;;;;5060746;28;21142;-82
2023/04/20 01:08:57;;;;;;;0.10;0.10;;;6.70;99.90;;;;;;5061466;28;20192;-81
2023/04/20 01:11:23;;;;;;;0.10;0.10;;;6.70;99.90;;;;;;5060585;28;20202;-81
2023/04/20 01:13:48;;;;;;;0.10;0.10;;;6.70;99.90;;;;;;5061461;28;20196;-81
2023/04/20 01:16:14;;;;;;;0.10;0.10;;;6.70;99.90;;;;;;5059077;28;20684;-81
2023/04/20 01:18:43;;;;;;;0.10;0.10;;;6.70;99.90;;;;;;5059181;28;20266;-81
2023/04/20 01:21:10;;;;;;;0.10;0.10;;;6.70;99.90;;;;;;5062919;28;20305;-80
2023/04/20 01:23:35;;;;;;;0.10;0.10;;;6.70;99.90;;;;;;5066179;28;20224;-81
2023/04/20 01:26:06;;;;;;;0.10;0.10;;;6.70;99.90;;;;;;5058826;28;20205;-81
2023/04/20 01:28:31;;;;;;;0.10;0.10;;;6.70;99.90;;;;;;5057691;28;20193;-80
2023/04/20 01:30:57;;;;;;;0.10;0.10;;;6.70;99.90;;;;;;5064385;28;20191;-80
2023/04/20 01:33:23;;;;;;;0.10;0.10;;;6.60;99.90;;;;;;5056629;28;20213;-81
2023/04/20 01:35:48;;;;;;;0.00;0.00;;;6.60;99.90;;;;;;5066498;28;20205;-81
2023/04/20 01:38:21;;;;;;;0.10;0.10;;;6.60;99.90;;;;;;5064098;28;20191;-80
2023/04/20 01:40:47;;;;;;;0.10;0.10;;;6.60;99.90;;;;;;5060384;28;20182;-80
2023/04/20 01:43:14;;;;;;;0.10;0.10;;;6.60;99.90;;;;;;5063272;28;20656;-80
2023/04/20 01:45:39;;;;;;;0.10;0.10;;;6.50;99.90;;;;;;5065742;28;20306;-80
2023/04/20 01:48:05;;;;;;;0.10;0.10;;;6.60;99.90;;;;;;5065286;28;20259;-80
2023/04/20 01:50:30;;;;;;;0.10;0.10;;;6.50;99.90;;;;;;5064406;28;20265;-80
2023/04/20 01:52:56;;;;;;;0.10;0.10;;;6.60;99.90;;;;;;5060998;28;20735;-81
2023/04/20 01:55:21;;;;;;;0.10;0.10;;;6.70;99.90;;;;;;5059910;28;20281;-81
2023/04/20 01:57:47;;;;;;;0.10;0.10;;;6.60;99.90;;;;;;5058879;28;21144;-80
2023/04/20 02:00:13;;;;;;;0.10;0.10;;;6.60;99.90;;;;;;5064745;28;20358;-83
2023/04/20 02:02:39;;;;;;;0.10;0.10;;;6.70;99.90;;;;;;5059841;28;20281;-81
2023/04/20 02:05:05;;;;;;;0.10;0.10;;;6.60;99.90;;;;;;5060491;28;20234;-80
2023/04/20 02:07:30;;;;;;;0.10;0.10;;;6.50;99.90;;;;;;5063534;28;20186;-81
2023/04/20 02:09:56;;;;;;;0.10;0.10;;;6.40;99.90;;;;;;5063115;28;20191;-82
2023/04/20 02:12:22;;;;;;;0.10;0.10;;;6.40;99.90;;;;;;5064606;28;20201;-81
2023/04/20 02:14:47;;;;;;;0.10;0.10;;;6.40;99.90;;;;;;5065359;28;20188;-81
2023/04/20 02:17:13;;;;;;;0.10;0.10;;;6.40;99.90;;;;;;5061974;28;20190;-81
2023/04/20 02:19:39;;;;;;;0.10;0.10;;;6.40;99.90;;;;;;5064610;28;20199;-81
2023/04/20 02:22:05;;;;;;;0.10;0.10;;;6.40;99.90;;;;;;5062329;28;20655;-80
2023/04/20 02:24:31;;;;;;;0.10;0.10;;;6.40;99.90;;;;;;5062377;28;20194;-81
2023/04/20 02:26:57;;;;;;;0.10;0.10;;;6.40;99.90;;;;;;5062708;28;20207;-80
2023/04/20 02:29:23;;;;;;;0.10;0.10;;;6.40;99.90;;;;;;5056367;28;20196;-81
2023/04/20 02:31:50;;;;;;;0.10;0.10;;;6.40;99.90;;;;;;5061897;28;20191;-80
2023/04/20 02:34:15;;;;;;;0.10;0.10;;;6.50;99.90;;;;;;5063247;28;20183;-81
2023/04/20 02:36:41;;;;;;;0.10;0.10;;;6.40;99.90;;;;;;5055060;28;20257;-81
2023/04/20 02:39:06;;;;;;;0.10;0.10;;;6.40;99.90;;;;;;5060975;28;20207;-81
2023/04/20 02:41:32;;;;;;;0.10;0.10;;;6.40;99.90;;;;;;5056778;28;20197;-80
2023/04/20 02:43:57;;;;;;;0.10;0.10;;;6.40;99.90;;;;;;5064155;28;21008;-81
2023/04/20 02:46:23;;;;;;;0.10;0.10;;;6.40;99.90;;;;;;5060022;28;20606;-81
2023/04/20 02:48:49;;;;;;;0.10;0.10;;;6.40;99.90;;;;;;5056960;28;20277;-81
2023/04/20 02:51:14;;;;;;;0.10;0.10;;;6.40;99.90;;;;;;5063331;28;20201;-81
2023/04/20 02:53:40;;;;;;;0.10;0.10;;;6.40;99.90;;;;;;5059762;28;20218;-81
2023/04/20 02:56:06;;;;;;;0.10;0.10;;;6.40;99.90;;;;;;5059633;28;20212;-81
2023/04/20 02:58:31;;;;;;;0.10;0.10;;;6.40;99.90;;;;;;5061555;28;20234;-80
2023/04/20 03:01:01;;;;;;;0.10;0.10;;;6.40;99.90;;;;;;5058500;28;20582;-81
2023/04/20 03:03:27;;;;;;;0.10;0.10;;;6.50;99.90;;;;;;5063654;28;20198;-80
2023/04/20 03:05:54;;;;;;;0.10;0.10;;;6.50;99.90;;;;;;5061515;28;20199;-81
2023/04/20 03:08:20;;;;;;;0.10;0.10;;;6.50;99.90;;;;;;5059318;28;20184;-81
2023/04/20 03:10:46;;;;;;;2.03;2.00;;;6.50;99.90;;;;;;5059250;28;20667;-81
2023/04/20 03:13:11;;;;;;;0.00;0.00;;;6.50;99.90;;;;;;5059237;28;20631;-81
2023/04/20 03:15:37;;;;;;;0.10;0.10;;;6.50;99.90;;;;;;5064734;28;20198;-81
2023/04/20 03:18:03;;;;;;;0.10;0.10;;;6.50;99.90;;;;;;5066200;28;20182;-81
2023/04/20 03:20:29;;;;;;;0.10;0.10;;;6.60;99.90;;;;;;5063741;28;21278;-81
2023/04/20 03:22:55;;;;;;;0.10;0.10;;;6.50;99.90;;;;;;5059303;28;20185;-81
2023/04/20 03:25:21;;;;;;;0.10;0.10;;;6.50;99.90;;;;;;5058355;28;20212;-80
2023/04/20 03:27:47;;;;;;;0.10;0.10;;;6.50;99.90;;;;;;5063067;28;20187;-81
2023/04/20 03:30:12;;;;;;;0.10;0.10;;;6.50;99.90;;;;;;5060685;28;20181;-81
2023/04/20 03:32:39;;;;;;;0.10;0.10;;;6.50;99.90;;;;;;5064166;28;20183;-81
2023/04/20 03:35:05;;;;;;;0.10;0.10;;;6.40;99.90;;;;;;5064608;28;20260;-81
2023/04/20 03:37:30;;;;;;;0.10;0.10;;;6.40;99.90;;;;;;5063153;28;20781;-80
2023/04/20 03:39:56;;;;;;;0.00;0.00;;;6.40;99.90;;;;;;5066087;28;20209;-80
2023/04/20 03:42:22;;;;;;;0.10;0.10;;;6.40;99.90;;;;;;5067518;28;20178;-80
2023/04/20 03:44:47;;;;;;;0.10;0.10;;;6.40;99.90;;;;;;5066900;28;20265;-80
2023/04/20 03:47:13;;;;;;;0.10;0.10;;;6.40;99.90;;;;;;5067218;28;20182;-81
2023/04/20 03:49:38;;;;;;;0.10;0.10;;;6.40;99.90;;;;;;5064471;28;20187;-80
2023/04/20 03:52:04;;;;;;;0.10;0.10;;;6.40;99.90;;;;;;5063293;28;20202;-81
2023/04/20 03:54:30;;;;;;;0.10;0.10;;;6.50;99.90;;;;;;5060913;28;20223;-80
2023/04/20 03:56:57;;;;;;;0.10;0.10;;;6.40;99.90;;;;;;5065966;28;20302;-80
2023/04/20 03:59:23;;;;;;;0.10;0.10;;;6.40;99.90;;;;;;5068315;28;20216;-81
2023/04/20 04:01:48;;;;;;;0.10;0.10;;;6.30;99.90;;;;;;5059378;28;20190;-80
2023/04/20 04:04:14;;;;;;;0.10;0.10;;;6.40;99.90;;;;;;5068573;28;20274;-80
2023/04/20 04:06:40;;;;;;;0.10;0.10;;;6.30;99.90;;;;;;5065479;28;20202;-81
2023/04/20 04:09:05;;;;;;;0.10;0.10;;;6.40;99.90;;;;;;5063558;28;20201;-81
2023/04/20 04:11:31;;;;;;;0.10;0.10;;;6.30;99.90;;;;;;5069682;28;20196;-81
2023/04/20 04:13:58;;;;;;;0.00;0.00;;;6.30;99.90;;;;;;5065792;28;20197;-80
2023/04/20 04:16:23;;;;;;;0.10;0.10;;;6.30;99.90;;;;;;5069313;28;20711;-81
2023/04/20 04:18:49;;;;;;;0.10;0.10;;;6.10;99.90;;;;;;5064235;28;20241;-81
2023/04/20 04:21:14;;;;;;;0.10;0.10;;;6.10;99.90;;;;;;5066652;28;20312;-81
2023/04/20 04:23:41;;;;;;;0.10;0.10;;;6.10;99.90;;;;;;5069132;28;20182;-81
2023/04/20 04:26:07;;;;;;;0.10;0.10;;;6.10;99.90;;;;;;5063055;28;20615;-81
2023/04/20 04:28:33;;;;;;;0.10;0.10;;;6.00;99.90;;;;;;5064805;28;20223;-81
2023/04/20 04:31:04;;;;;;;0.10;0.10;;;6.00;99.90;;;;;;5062786;28;20671;-81
2023/04/20 04:33:32;;;;;;;0.10;0.10;;;6.00;99.90;;;;;;5068232;28;20176;-81
2023/04/20 04:35:59;;;;;;;0.10;0.10;;;6.00;99.90;;;;;;5065276;28;20262;-80
2023/04/20 04:38:27;;;;;;;0.10;0.10;;;6.00;99.90;;;;;;5067849;28;20181;-81
2023/04/20 04:40:53;;;;;;;0.10;0.10;;;5.90;99.90;;;;;;5064396;28;20731;-81
2023/04/20 04:43:19;;;;;;;0.10;0.10;;;5.90;99.90;;;;;;5065854;28;20182;-80
2023/04/20 04:45:45;;;;;;;0.10;0.10;;;5.90;99.90;;;;;;5061080;28;20348;-80
2023/04/20 04:48:11;;;;;;;0.10;0.10;;;5.90;99.90;;;;;;5067073;28;20260;-80
2023/04/20 04:50:37;;;;;;;0.00;0.00;;;5.90;99.90;;;;;;5063272;28;20207;-81
2023/04/20 04:53:03;;;;;;;0.10;0.10;;;5.80;99.90;;;;;;5065092;28;20197;-81
2023/04/20 04:55:28;;;;;;;0.00;0.00;;;5.80;99.90;;;;;;5061064;28;20205;-81
2023/04/20 04:57:54;;;;;;;0.10;0.10;;;5.80;99.90;;;;;;5059334;28;20808;-80
2023/04/20 05:00:21;;;;;;;0.10;0.10;;;5.80;99.90;;;;;;5061867;28;20262;-81
2023/04/20 05:02:46;;;;;;;0.10;0.10;;;5.80;99.90;;;;;;5061829;28;20197;-81
2023/04/20 05:05:12;;;;;;;0.10;0.10;;;5.80;99.90;;;;;;5060620;28;20209;-80
2023/04/20 05:07:38;;;;;;;0.10;0.10;;;5.70;99.90;;;;;;5065404;28;20190;-81
2023/04/20 05:10:05;;;;;;;0.00;0.00;;;5.80;99.90;;;;;;5066484;28;20179;-80
2023/04/20 05:12:31;;;;;;;0.03;0.03;;;5.80;99.90;;;;;;5064575;28;20189;-80
2023/04/20 05:14:57;;;;;;;0.00;0.00;;;5.90;99.90;;;;;;5058201;28;20213;-79
2023/04/20 05:17:22;;;;;;;0.00;0.00;;;5.90;99.90;;;;;;5067131;28;20770;-79
2023/04/20 05:19:48;;;;;;;0.10;0.10;;;5.90;99.90;;;;;;5068859;28;20209;-80
2023/04/20 05:22:13;;;;;;;0.10;0.10;;;5.80;99.90;;;;;;5064932;28;20586;-80
2023/04/20 05:24:39;;;;;;;0.00;0.00;;;5.90;99.90;;;;;;5063269;28;20670;-80
2023/04/20 05:27:04;;;;;;;0.10;0.10;;;5.90;99.90;;;;;;5061025;28;20178;-80
2023/04/20 05:29:31;;;;;;;0.00;0.00;;;5.90;99.90;;;;;;5059385;28;20185;-80
2023/04/20 05:31:57;;;;;;;0.10;0.10;;;5.90;99.90;;;;;;5064455;28;20182;-80
2023/04/20 05:34:23;;;;;;;0.10;0.10;;;5.90;99.90;;;;;;5065970;28;20185;-80
2023/04/20 05:36:50;;;;;;;0.10;0.10;;;5.90;99.90;;;;;;5061383;28;20210;-80
2023/04/20 05:39:16;;;;;;;0.00;0.00;;;6.00;99.90;;;;;;5066546;28;20683;-80
2023/04/20 05:41:41;;;;;;;0.00;0.00;;;5.90;99.90;;;;;;5063197;28;20185;-80
2023/04/20 05:44:07;;;;;;;0.10;0.10;;;5.90;99.90;;;;;;5061825;28;20668;-81
2023/04/20 05:46:32;;;;;;;0.10;0.10;;;5.90;99.90;;;;;;5065058;28;20200;-80
2023/04/20 05:48:58;;;;;;;0.10;0.10;;;5.90;99.90;;;;;;5065385;28;20185;-80
2023/04/20 05:51:27;;;;;;;0.10;0.10;;;6.00;99.90;;;;;;5060297;28;20177;-80
2023/04/20 05:53:53;;;;;;;0.10;0.10;;;6.00;99.90;;;;;;5065859;28;20181;-80
2023/04/20 05:56:19;;;;;;;0.10;0.10;;;6.00;99.90;;;;;;5061832;28;20221;-80
2023/04/20 05:58:44;;;;;;;0.10;0.10;;;6.10;99.90;;;;;;5061197;28;20294;-80
2023/04/20 06:01:10;;;;;;;0.10;0.10;;;6.20;99.90;;;;;;5063328;28;20200;-80
2023/04/20 06:03:36;;;;;;;0.10;0.10;;;6.10;99.90;;;;;;5064683;28;20198;-81
2023/04/20 06:06:01;;;;;;;0.10;0.10;;;6.10;99.90;;;;;;5063391;28;20225;-80
2023/04/20 06:08:27;;;;;;;0.10;0.10;;;6.20;99.90;;;;;;5060846;28;20565;-80
2023/04/20 06:10:54;;;;;;;0.10;0.10;;;6.30;99.90;;;;;;5062501;28;20554;-80
2023/04/20 06:13:20;;;;;;;0.20;0.20;;;6.20;99.90;;;;;;5064541;28;20185;-80
2023/04/20 06:15:46;;;;;;;0.10;0.10;;;6.20;99.90;;;;;;5060047;28;20202;-80
2023/04/20 06:18:11;;;;;;;0.10;0.10;;;6.10;99.90;;;;;;5058715;28;20182;-79
2023/04/20 06:20:38;;;;;;;0.00;0.00;;;6.10;99.90;;;;;;5063022;28;20190;-80
2023/04/20 06:23:03;;;;;;;0.10;0.10;;;6.20;99.90;;;;;;5068089;28;20255;-79
2023/04/20 06:25:29;;;;;;;0.10;0.10;;;6.30;99.90;;;;;;5057162;28;20262;-80
2023/04/20 06:27:54;;;;;;;0.10;0.10;;;6.20;99.90;;;;;;5060207;28;20197;-80
2023/04/20 06:30:20;;;;;;;0.10;0.10;;;6.10;99.90;;;;;;5080175;28;20791;-81
2023/04/20 06:32:45;;;;;;;0.00;0.00;;;6.00;99.90;;;;;;5058505;28;20292;-80
2023/04/20 06:35:11;;;;;;;0.10;0.10;;;5.90;99.90;;;;;;5058963;28;20206;-80
2023/04/20 06:37:37;;;;;;;0.10;0.10;;;6.00;99.90;;;;;;5060377;28;20170;-80
2023/04/20 06:40:07;;;;;;;0.10;0.10;;;6.30;99.90;;;;;;5061338;28;20258;-80
2023/04/20 06:42:33;;;;;;;0.10;0.10;;;6.20;99.90;;;;;;5066796;28;20174;-80
2023/04/20 06:44:59;;;;;;;0.10;0.10;;;6.10;99.90;;;;;;5060634;28;20236;-81
2023/04/20 06:47:30;;;;;;;0.10;0.10;;;6.10;99.90;;;;;;5060956;28;20623;-80
2023/04/20 06:49:57;;;;;;;0.10;0.10;;;6.00;99.90;;;;;;5059683;28;20186;-81
2023/04/20 06:52:22;;;;;;;0.10;0.10;;;6.00;99.90;;;;;;5055631;28;20185;-80
2023/04/20 06:54:48;;;;;;;0.10;0.10;;;5.90;99.90;;;;;;5063219;28;20274;-80
2023/04/20 06:57:13;;;;;;;0.10;0.10;;;5.80;99.90;;;;;;5058288;28;20186;-81
2023/04/20 06:59:39;;;;;;;0.10;0.10;;;5.70;99.90;;;;;;5057180;28;20213;-80
2023/04/20 07:02:05;;;;;;;0.10;0.10;;;5.70;99.90;;;;;;5062776;28;20194;-81
2023/04/20 07:04:30;;;;;;;0.10;0.10;;;5.70;99.90;;;;;;5064181;28;20646;-81
2023/04/20 07:06:56;;;;;;;0.10;0.10;;;5.70;99.90;;;;;;5061770;28;20235;-80
2023/04/20 07:09:22;;;;;;;0.10;0.10;;;5.80;99.90;;;;;;5054693;28;20567;-80
2023/04/20 07:11:47;;;;;;;0.10;0.10;;;5.80;99.90;;;;;;5059975;28;20181;-80
2023/04/20 07:14:13;;;;;;;0.10;0.10;;;5.70;99.90;;;;;;5057843;28;20197;-80
2023/04/20 07:16:38;;;;;;;0.10;0.10;;;5.90;99.90;;;;;;5060764;28;20205;-81
2023/04/20 07:19:04;;;;;;;0.10;0.10;;;5.70;99.90;;;;;;5059675;28;20212;-81
2023/04/20 07:21:30;;;;;;;0.10;0.10;;;5.80;99.90;;;;;;5069876;28;20208;-80
2023/04/20 07:23:57;;;;;;;0.10;0.10;;;5.90;99.90;;;;;;5070680;28;20524;-80
2023/04/20 07:26:23;;;;;;;0.30;0.30;;;5.80;99.90;;;;;;5071886;28;20229;-80
2023/04/20 07:28:50;;;;;;;0.07;0.07;;;5.70;99.90;;;;;;5064334;28;21090;-80
2023/04/20 07:31:16;;;;;;;0.10;0.10;;;5.80;99.90;;;;;;5065696;28;20182;-80
2023/04/20 07:33:42;;;;;;;0.00;0.00;;;5.90;99.90;;;;;;5066392;28;20194;-80
2023/04/20 07:36:08;;;;;;;0.10;0.10;;;5.90;99.90;;;;;;5060064;28;20214;-80
2023/04/20 07:38:34;;;;;;;0.43;0.43;;;5.90;99.90;;;;;;5063139;28;20192;-81
2023/04/20 07:40:59;;;;;;;0.10;0.10;;;6.00;99.90;;;;;;5063132;28;20564;-81
2023/04/20 07:43:25;;;;;;;0.10;0.10;;;6.10;99.90;;;;;;5068356;28;20236;-79
2023/04/20 07:45:50;;;;;;;0.40;0.40;;;6.10;99.90;;;;;;5068832;28;20217;-80
2023/04/20 07:48:16;;;;;;;0.10;0.10;;;6.10;99.90;;;;;;5061389;28;20190;-80
2023/04/20 07:50:41;;;;;;;0.10;0.10;;;6.20;99.90;;;;;;5064101;28;20286;-80
2023/04/20 07:53:07;;;;;;;0.10;0.10;;;6.20;99.90;;;;;;5061509;28;20189;-80
2023/04/20 07:55:32;;;;;;;0.10;0.10;;;6.20;99.90;;;;;;5064501;28;20198;-80
2023/04/20 07:57:59;;;;;;;0.10;0.10;;;6.10;99.90;;;;;;5058348;28;20189;-80
2023/04/20 08:00:25;;;;;;;0.00;0.00;;;6.20;99.90;;;;;;5064677;28;20202;-79
2023/04/20 08:02:51;;;;;;;0.00;0.00;;;6.20;99.90;;;;;;5064707;28;20208;-80
2023/04/20 08:05:17;;;;;;;0.10;0.10;;;6.30;99.90;;;;;;5065382;28;20209;-80
2023/04/20 08:07:42;;;;;;;0.10;0.10;;;6.40;99.90;;;;;;5065710;28;20186;-79
2023/04/20 08:10:09;;;;;;;0.10;0.10;;;6.40;99.90;;;;;;5068768;28;20202;-79
2023/04/20 08:12:35;;;;;;;0.10;0.10;;;6.70;99.90;;;;;;5069227;28;20305;-79
2023/04/20 08:15:03;;;;;;;0.10;0.10;;;6.60;99.90;;;;;;5065394;28;20573;-80
2023/04/20 08:17:29;;;;;;;0.10;0.10;;;6.80;99.90;;;;;;5065350;28;20186;-81
2023/04/20 08:19:54;;;;;;;0.10;0.10;;;6.90;99.90;;;;;;5070497;28;20213;-80
2023/04/20 08:22:20;;;;;;;0.10;0.10;;;6.80;99.90;;;;;;5065720;28;20198;-81
2023/04/20 08:24:46;;;;;;;0.10;0.10;;;7.20;99.90;;;;;;5065773;28;20671;-82
2023/04/20 08:27:12;;;;;;;0.10;0.10;;;7.10;99.90;;;;;;5063461;28;20561;-82
2023/04/20 08:29:38;;;;;;;0.10;0.10;;;7.00;99.90;;;;;;5061811;28;20581;-83
2023/04/20 08:32:07;;;;;;;0.10;0.10;;;6.90;99.90;;;;;;5064400;28;20195;-81
2023/04/20 08:34:33;;;;;;;0.10;0.10;;;7.20;99.90;;;;;;5063497;28;20183;-82
2023/04/20 08:36:59;;;;;;;0.07;0.07;;;7.60;99.90;;;;;;5060754;28;20687;-80
2023/04/20 08:39:25;;;;;;;0.10;0.10;;;8.00;99.90;;;;;;5061051;28;20637;-81
2023/04/20 08:41:54;;;;;;;0.07;0.07;;;7.80;99.90;;;;;;5066729;28;20650;-83
2023/04/20 08:44:20;;;;;;;0.10;0.10;;;7.80;99.90;;;;;;5062709;28;20184;-79
2023/04/20 08:46:47;;;;;;;0.10;0.10;;;7.80;99.90;;;;;;5066299;28;20200;-79
2023/04/20 08:49:17;;;;;;;0.10;0.10;;;7.70;99.90;;;;;;5067376;28;20228;-80
2023/04/20 08:51:43;;;;;;;0.10;0.10;;;7.80;99.90;;;;;;5065645;28;20193;-81
2023/04/20 08:54:10;;;;;;;0.10;0.10;;;7.90;99.90;;;;;;5068243;28;20184;-81
2023/04/20 08:56:37;;;;;;;0.10;0.10;;;8.10;99.90;;;;;;5066384;28;20855;-81
2023/04/20 08:59:04;;;;;;;0.10;0.10;;;8.30;99.90;;;;;;5080173;28;20207;-85
2023/04/20 09:01:30;;;;;;;0.10;0.10;;;8.00;99.90;;;;;;5071689;28;20192;-84
2023/04/20 09:03:59;;;;;;;0.10;0.10;;;8.50;99.90;;;;;;5076777;28;20227;-83
2023/04/20 09:06:25;;;;;;;0.00;0.00;;;8.70;99.90;;;;;;5081790;28;20204;-85
2023/04/20 09:08:51;;;;;;;0.10;0.10;;;8.80;99.90;;;;;;5071380;28;20575;-82
2023/04/20 09:11:27;;;;;;;0.10;0.10;;;8.90;99.90;;;;;;5069277;28;20192;-81
2023/04/20 09:14:08;;;;;;;0.20;0.20;;;8.80;99.90;;;;;;5063830;28;20212;-81
2023/04/20 09:16:36;;;;;;;0.10;0.10;;;8.80;99.90;;;;;;5072726;28;20212;-83
2023/04/20 09:19:02;;;;;;;0.10;0.10;;;8.80;99.90;;;;;;5066725;28;20219;-81
2023/04/20 09:21:28;;;;;;;0.10;0.10;;;8.90;99.90;;;;;;5068226;28;20216;-83
2023/04/20 09:23:59;;;;;;;0.10;0.10;;;9.20;99.90;;;;;;5066393;28;20222;-84
2023/04/20 09:26:25;;;;;;;0.10;0.10;;;9.70;99.90;;;;;;5066252;28;20204;-83
2023/04/20 09:28:50;;;;;;;0.10;0.10;;;9.30;99.90;;;;;;5064391;28;20288;-82
2023/04/20 09:31:17;;;;;;;0.10;0.10;;;9.10;99.90;;;;;;5067192;28;20558;-83
2023/04/20 09:33:43;;;;;;;0.10;0.10;;;9.10;99.90;;;;;;5067767;28;20196;-84
2023/04/20 09:36:09;;;;;;;0.10;0.10;;;8.90;99.90;;;;;;5063557;28;20217;-82
2023/04/20 09:38:35;;;;;;;0.10;0.10;;;9.30;99.90;;;;;;5061603;28;20215;-84
2023/04/20 09:41:01;;;;;;;0.10;0.10;;;9.50;99.90;;;;;;5061340;28;20181;-84
2023/04/20 09:43:29;;;;;;;0.10;0.10;;;9.30;99.90;;;;;;5060954;28;20185;-84
2023/04/20 09:45:57;;;;;;;0.10;0.10;;;9.60;99.90;;;;;;5064054;28;20291;-83
2023/04/20 09:48:23;;;;;;;0.10;0.10;;;9.40;99.90;;;;;;5059891;28;21127;-83
2023/04/20 09:50:49;;;;;;;0.10;0.10;;;9.40;99.90;;;;;;5063276;28;20185;-83
2023/04/20 09:53:16;;;;;;;0.10;0.10;;;9.60;99.90;;;;;;5062806;28;21264;-84
2023/04/20 09:55:47;;;;;;;0.10;0.10;;;9.60;99.90;;;;;;5059871;28;20610;-84
2023/04/20 09:58:13;;;;;;;0.10;0.10;;;10.00;99.90;;;;;;5065720;28;20180;-84
2023/04/20 10:00:38;;;;;;;0.10;0.10;;;9.90;99.90;;;;;;5061301;28;20197;-83
2023/04/20 10:03:05;;;;;;;0.10;0.10;;;9.60;99.90;;;;;;5064644;28;20217;-83
2023/04/20 10:05:38;;;;;;;0.10;0.10;;;9.80;99.90;;;;;;5061179;28;20243;-84
2023/04/20 10:08:04;;;;;;;0.10;0.10;;;10.10;99.90;;;;;;5063191;28;20184;-84
2023/04/20 10:10:41;;;;;;;0.10;0.10;;;10.00;99.90;;;;;;5065018;28;20300;-85
2023/04/20 10:13:07;;;;;;;0.10;0.10;;;10.10;99.90;;;;;;5065290;28;20215;-83
2023/04/20 10:15:40;;;;;;;0.10;0.10;;;10.40;99.90;;;;;;5066144;28;20242;-84
2023/04/20 10:18:16;;;;;;;0.10;0.10;;;10.10;99.90;;;;;;5065973;28;20202;-83
2023/04/20 10:20:42;;;;;;;0.10;0.10;;;9.90;99.90;;;;;;5063752;28;22135;-84
2023/04/20 10:23:09;;;;;;;0.10;0.10;;;10.10;99.90;;;;;;5069952;28;20185;-85
2023/04/20 10:25:35;;;;;;;0.10;0.10;;;10.10;99.90;;;;;;5069812;28;20200;-83
2023/04/20 10:28:04;;;;;;;0.10;0.10;;;10.20;99.90;;;;;;5061970;28;20189;-86
2023/04/20 10:30:32;;;;;;;0.10;0.10;;;10.40;99.90;;;;;;5064803;28;20201;-84
2023/04/20 10:33:05;;;;;;;0.10;0.10;;;10.80;99.90;;;;;;5071334;28;20197;-86
2023/04/20 10:35:46;;;;;;;0.10;0.10;;;11.10;99.90;;;;;;5076545;28;20196;-83
2023/04/20 10:38:12;;;;;;;0.10;0.10;;;11.00;99.90;;;;;;5070752;28;20189;-83
2023/04/20 10:40:38;;;;;;;0.00;0.00;;;10.70;99.90;;;;;;5069472;28;20243;-82
2023/04/20 10:43:04;;;;;;;0.10;0.10;;;10.90;99.90;;;;;;5069900;28;20280;-83
2023/04/20 10:45:35;;;;;;;0.10;0.10;;;10.90;99.90;;;;;;5070054;28;20227;-84
2023/04/20 10:48:10;;;;;;;0.10;0.10;;;11.00;99.90;;;;;;5068464;28;20685;-83
2023/04/20 10:50:36;;;;;;;0.10;0.10;;;11.70;99.90;;;;;;5069778;28;20222;-83
2023/04/20 10:53:06;;;;;;;0.10;0.10;;;11.80;99.90;;;;;;5069883;28;20200;-85
2023/04/20 10:55:33;;;;;;;0.10;0.10;;;12.30;99.90;;;;;;5066696;28;20310;-84
2023/04/20 10:57:58;;;;;;;0.10;0.10;;;12.10;99.90;;;;;;5070524;28;20301;-84
2023/04/20 11:00:26;;;;;;;0.00;0.00;;;12.40;99.90;;;;;;5067730;28;20283;-84
2023/04/20 11:02:55;;;;;;;0.17;0.17;;;12.00;99.90;;;;;;5072417;28;20197;-83
2023/04/20 11:05:24;;;;;;;0.10;0.10;;;12.10;99.90;;;;;;5068669;28;20193;-85
2023/04/20 11:07:56;;;;;;;0.10;0.10;;;12.80;99.90;;;;;;5068382;28;20186;-83
2023/04/20 11:10:35;;;;;;;0.10;0.10;;;12.70;99.90;;;;;;5070343;28;20193;-85
2023/04/20 11:13:01;;;;;;;0.10;0.10;;;12.20;99.90;;;;;;5072938;28;20188;-85
2023/04/20 11:15:31;;;;;;;0.10;0.10;;;12.30;99.90;;;;;;5071636;28;20218;-84
2023/04/20 11:18:05;;;;;;;0.10;0.10;;;13.10;99.90;;;;;;5066244;28;20193;-81
2023/04/20 11:20:31;;;;;;;0.10;0.10;;;13.70;99.90;;;;;;5070395;28;20257;-81
2023/04/20 11:22:58;;;;;;;1.33;1.33;;;14.30;99.90;;;;;;5068394;28;20186;-81
2023/04/20 11:25:24;;;;;;;0.10;0.10;;;14.00;99.90;;;;;;5068550;28;20270;-82
2023/04/20 11:27:49;;;;;;;0.83;0.83;;;13.50;99.90;;;;;;5063982;28;20214;-82
2023/04/20 11:30:15;;;;;;;0.10;0.10;;;12.70;99.90;;;;;;5063817;28;20238;-81
2023/04/20 11:32:40;;;;;;;0.10;0.10;;;12.00;99.90;;;;;;5068226;28;20194;-81
2023/04/20 11:35:09;;;;;;;0.10;0.10;;;11.80;99.90;;;;;;5066895;28;20216;-81
2023/04/20 11:37:52;;;;;;;0.10;0.10;;;11.70;99.90;;;;;;5069330;28;20233;-80
2023/04/20 11:40:18;;;;;;;0.10;0.10;;;11.70;99.90;;;;;;5067784;28;20311;-81
2023/04/20 11:42:45;;;;;;;0.40;0.40;;;11.90;99.90;;;;;;5063567;28;20222;-81
2023/04/20 11:45:10;;;;;;;0.10;0.10;;;12.00;99.90;;;;;;5067093;28;20232;-83
2023/04/20 11:47:39;;;;;;;0.10;0.10;;;12.40;99.90;;;;;;5071272;28;20186;-82
2023/04/20 11:50:06;;;;;;;0.20;0.20;;;12.60;99.90;;;;;;5064370;28;20554;-80
2023/04/20 11:52:32;;;;;;;0.10;0.10;;;12.50;99.90;;;;;;5071966;28;20196;-83
2023/04/20 11:54:57;;;;;;;0.10;0.10;;;12.70;99.90;;;;;;5069338;28;20201;-81
2023/04/20 11:57:24;;;;;;;0.10;0.10;;;12.70;99.90;;;;;;5071360;28;20223;-81
2023/04/20 11:59:50;;;;;;;0.10;0.10;;;12.80;99.90;;;;;;5071356;28;20193;-82
2023/04/20 12:02:15;;;;;;;0.10;0.10;;;13.20;99.90;;;;;;5070038;28;20254;-81
2023/04/20 12:04:41;;;;;;;0.10;0.10;;;13.20;99.90;;;;;;5069949;28;20261;-81
2023/04/20 12:07:06;;;;;;;0.10;0.10;;;13.20;99.90;;;;;;5072087;28;20288;-82
2023/04/20 12:09:37;;;;;;;0.10;0.10;;;12.90;99.90;;;;;;5072929;28;20185;-85
2023/04/20 12:12:03;;;;;;;0.10;0.10;;;12.80;99.90;;;;;;5073724;28;20203;-82
2023/04/20 12:14:29;;;;;;;0.10;0.10;;;12.90;99.90;;;;;;5072791;28;20186;-83
2023/04/20 12:16:54;;;;;;;0.10;0.10;;;12.90;99.90;;;;;;5070441;28;20206;-83
2023/04/20 12:19:20;;;;;;;0.10;0.10;;;13.10;99.90;;;;;;5074058;28;20286;-82
2023/04/20 12:21:46;;;;;;;0.10;0.10;;;12.70;99.90;;;;;;5066706;28;20236;-82
2023/04/20 12:24:12;;;;;;;0.10;0.10;;;12.70;99.90;;;;;;5067079;28;20202;-80
2023/04/20 12:26:38;;;;;;;0.10;0.10;;;12.50;99.90;;;;;;5065134;28;20227;-81
2023/04/20 12:29:04;;;;;;;0.10;0.10;;;12.50;99.90;;;;;;5069061;28;20258;-81
2023/04/20 12:31:29;;;;;;;0.10;0.10;;;12.00;99.90;;;;;;5066031;28;20200;-81
2023/04/20 12:33:55;;;;;;;0.10;0.10;;;12.00;99.90;;;;;;5073477;28;20720;-82
2023/04/20 12:36:21;;;;;;;0.10;0.10;;;12.20;99.90;;;;;;5073879;28;20689;-81
2023/04/20 12:38:46;;;;;;;0.10;0.10;;;12.60;99.90;;;;;;5067690;28;20257;-84
2023/04/20 12:41:15;;;;;;;0.10;0.10;;;12.80;99.90;;;;;;5071449;28;20259;-82
2023/04/20 12:43:41;;;;;;;0.10;0.10;;;12.50;99.90;;;;;;5072689;28;20188;-83
2023/04/20 12:46:06;;;;;;;0.10;0.10;;;12.50;99.90;;;;;;5072598;28;20951;-82
2023/04/20 12:48:32;;;;;;;0.10;0.10;;;12.10;99.90;;;;;;5072238;28;20173;-82
2023/04/20 12:50:58;;;;;;;0.10;0.10;;;12.40;99.90;;;;;;5066589;28;20530;-83